sensor_id;sensor_type;location;lat;lon;timestamp;P1;durP1;ratioP1;P2;durP2;ratioP2
21513;SDS011;10918;48.102;11.636;2023-01-04T00:01:03;6.35;;;5.00;;
21513;SDS011;10918;48.102;11.636;2023-01-04T00:03:29;11.23;;;6.60;;
21513;SDS011;10918;48.102;11.636;2023-01-04T00:05:59;10.50;;;6.95;;
21513;SDS011;10918;48.102;11.636;2023-01-04T00:08:25;9.43;;;6.43;;
21513;SDS011;10918;48.102;11.636;2023-01-04T00:10:51;5.78;;;4.97;;
21513;SDS011;10918;48.102;11.636;2023-01-04T00:13:17;7.30;;;5.75;;
21513;SDS011;10918;48.102;11.636;2023-01-04T00:15:43;5.80;;;5.05;;
21513;SDS011;10918;48.102;11.636;2023-01-04T00:18:09;6.75;;;5.20;;
21513;SDS011;10918;48.102;11.636;2023-01-04T00:20:35;7.18;;;5.65;;
21513;SDS011;10918;48.102;11.636;2023-01-04T00:23:01;6.47;;;4.80;;
21513;SDS011;10918;48.102;11.636;2023-01-04T00:25:27;7.32;;;4.82;;
21513;SDS011;10918;48.102;11.636;2023-01-04T00:27:53;6.07;;;5.10;;
21513;SDS011;10918;48.102;11.636;2023-01-04T00:30:19;5.63;;;5.00;;
21513;SDS011;10918;48.102;11.636;2023-01-04T00:32:45;5.60;;;4.78;;
21513;SDS011;10918;48.102;11.636;2023-01-04T00:35:11;6.93;;;5.03;;
21513;SDS011;10918;48.102;11.636;2023-01-04T00:37:36;5.93;;;5.25;;
21513;SDS011;10918;48.102;11.636;2023-01-04T00:40:03;7.15;;;5.28;;
21513;SDS011;10918;48.102;11.636;2023-01-04T00:42:29;6.32;;;5.00;;
21513;SDS011;10918;48.102;11.636;2023-01-04T00:44:55;5.53;;;4.82;;
21513;SDS011;10918;48.102;11.636;2023-01-04T00:47:21;6.55;;;5.13;;
21513;SDS011;10918;48.102;11.636;2023-01-04T00:49:46;7.00;;;5.45;;
21513;SDS011;10918;48.102;11.636;2023-01-04T00:52:12;5.97;;;5.00;;
21513;SDS011;10918;48.102;11.636;2023-01-04T00:54:38;6.32;;;5.40;;
21513;SDS011;10918;48.102;11.636;2023-01-04T00:57:04;7.35;;;5.50;;
21513;SDS011;10918;48.102;11.636;2023-01-04T00:59:31;8.80;;;5.70;;
21513;SDS011;10918;48.102;11.636;2023-01-04T01:01:57;6.45;;;5.75;;
21513;SDS011;10918;48.102;11.636;2023-01-04T01:04:23;8.13;;;5.75;;
21513;SDS011;10918;48.102;11.636;2023-01-04T01:06:50;5.38;;;4.72;;
21513;SDS011;10918;48.102;11.636;2023-01-04T01:09:16;5.63;;;4.80;;
21513;SDS011;10918;48.102;11.636;2023-01-04T01:11:42;5.90;;;4.55;;
21513;SDS011;10918;48.102;11.636;2023-01-04T01:14:12;8.35;;;4.80;;
21513;SDS011;10918;48.102;11.636;2023-01-04T01:16:38;7.80;;;5.38;;
21513;SDS011;10918;48.102;11.636;2023-01-04T01:19:04;8.38;;;5.25;;
21513;SDS011;10918;48.102;11.636;2023-01-04T01:21:30;6.07;;;4.95;;
21513;SDS011;10918;48.102;11.636;2023-01-04T01:23:57;5.80;;;5.10;;
21513;SDS011;10918;48.102;11.636;2023-01-04T01:26:23;5.30;;;4.60;;
21513;SDS011;10918;48.102;11.636;2023-01-04T01:28:51;8.18;;;5.18;;
21513;SDS011;10918;48.102;11.636;2023-01-04T01:31:21;6.25;;;4.72;;
21513;SDS011;10918;48.102;11.636;2023-01-04T01:33:48;6.80;;;5.50;;
21513;SDS011;10918;48.102;11.636;2023-01-04T01:36:15;6.25;;;4.65;;
21513;SDS011;10918;48.102;11.636;2023-01-04T01:38:41;5.97;;;4.70;;
21513;SDS011;10918;48.102;11.636;2023-01-04T01:41:09;5.82;;;4.25;;
21513;SDS011;10918;48.102;11.636;2023-01-04T01:43:46;5.90;;;4.40;;
21513;SDS011;10918;48.102;11.636;2023-01-04T01:46:12;6.80;;;4.63;;
21513;SDS011;10918;48.102;11.636;2023-01-04T01:48:39;4.45;;;3.97;;
21513;SDS011;10918;48.102;11.636;2023-01-04T01:51:05;5.20;;;3.92;;
21513;SDS011;10918;48.102;11.636;2023-01-04T01:53:33;4.60;;;3.88;;
21513;SDS011;10918;48.102;11.636;2023-01-04T01:56:00;4.20;;;3.42;;
21513;SDS011;10918;48.102;11.636;2023-01-04T01:58:27;4.88;;;3.88;;
21513;SDS011;10918;48.102;11.636;2023-01-04T02:00:55;6.82;;;3.22;;
21513;SDS011;10918;48.102;11.636;2023-01-04T02:03:22;6.05;;;3.90;;
21513;SDS011;10918;48.102;11.636;2023-01-04T02:05:50;3.42;;;3.08;;
21513;SDS011;10918;48.102;11.636;2023-01-04T02:08:17;4.00;;;3.38;;
21513;SDS011;10918;48.102;11.636;2023-01-04T02:10:46;3.28;;;2.95;;
21513;SDS011;10918;48.102;11.636;2023-01-04T02:13:13;3.95;;;3.42;;
21513;SDS011;10918;48.102;11.636;2023-01-04T02:16:30;5.13;;;3.92;;
21513;SDS011;10918;48.102;11.636;2023-01-04T02:18:29;5.07;;;3.88;;
21513;SDS011;10918;48.102;11.636;2023-01-04T02:20:58;5.50;;;3.40;;
21513;SDS011;10918;48.102;11.636;2023-01-04T02:31:40;6.07;;;4.03;;
21513;SDS011;10918;48.102;11.636;2023-01-04T02:34:18;4.78;;;3.97;;
21513;SDS011;10918;48.102;11.636;2023-01-04T02:41:53;5.68;;;4.53;;
21513;SDS011;10918;48.102;11.636;2023-01-04T02:44:32;5.82;;;4.82;;
21513;SDS011;10918;48.102;11.636;2023-01-04T02:50:18;6.32;;;4.80;;
21513;SDS011;10918;48.102;11.636;2023-01-04T03:00:48;5.30;;;4.75;;
21513;SDS011;10918;48.102;11.636;2023-01-04T03:03:40;6.15;;;4.57;;
21513;SDS011;10918;48.102;11.636;2023-01-04T03:06:33;6.38;;;5.03;;
21513;SDS011;10918;48.102;11.636;2023-01-04T03:09:08;5.75;;;4.65;;
21513;SDS011;10918;48.102;11.636;2023-01-04T03:11:57;7.45;;;5.38;;
21513;SDS011;10918;48.102;11.636;2023-01-04T03:14:53;7.43;;;5.70;;
21513;SDS011;10918;48.102;11.636;2023-01-04T03:17:24;6.38;;;5.40;;
21513;SDS011;10918;48.102;11.636;2023-01-04T03:19:51;9.88;;;6.10;;
21513;SDS011;10918;48.102;11.636;2023-01-04T03:22:26;7.57;;;5.28;;
21513;SDS011;10918;48.102;11.636;2023-01-04T03:25:13;10.75;;;6.18;;
21513;SDS011;10918;48.102;11.636;2023-01-04T03:27:58;8.38;;;5.38;;
21513;SDS011;10918;48.102;11.636;2023-01-04T03:30:50;10.23;;;5.90;;
21513;SDS011;10918;48.102;11.636;2023-01-04T03:33:35;8.32;;;5.95;;
21513;SDS011;10918;48.102;11.636;2023-01-04T03:41:58;6.53;;;5.25;;
21513;SDS011;10918;48.102;11.636;2023-01-04T03:47:29;7.40;;;5.40;;
21513;SDS011;10918;48.102;11.636;2023-01-04T03:52:44;7.05;;;5.68;;
21513;SDS011;10918;48.102;11.636;2023-01-04T03:55:11;5.80;;;4.80;;
21513;SDS011;10918;48.102;11.636;2023-01-04T03:57:37;7.43;;;5.65;;
21513;SDS011;10918;48.102;11.636;2023-01-04T04:00:07;7.72;;;5.43;;
21513;SDS011;10918;48.102;11.636;2023-01-04T04:02:34;8.02;;;5.65;;
21513;SDS011;10918;48.102;11.636;2023-01-04T04:05:00;7.10;;;5.35;;
21513;SDS011;10918;48.102;11.636;2023-01-04T04:07:45;6.45;;;4.88;;
21513;SDS011;10918;48.102;11.636;2023-01-04T04:10:29;6.88;;;5.47;;
21513;SDS011;10918;48.102;11.636;2023-01-04T04:12:55;7.47;;;5.35;;
21513;SDS011;10918;48.102;11.636;2023-01-04T04:15:21;9.13;;;6.20;;
21513;SDS011;10918;48.102;11.636;2023-01-04T04:17:47;10.48;;;4.75;;
21513;SDS011;10918;48.102;11.636;2023-01-04T04:20:13;6.43;;;5.18;;
21513;SDS011;10918;48.102;11.636;2023-01-04T04:22:39;7.03;;;5.60;;
21513;SDS011;10918;48.102;11.636;2023-01-04T04:25:05;6.13;;;4.68;;
21513;SDS011;10918;48.102;11.636;2023-01-04T04:27:32;5.10;;;4.10;;
21513;SDS011;10918;48.102;11.636;2023-01-04T04:29:58;6.45;;;5.18;;
21513;SDS011;10918;48.102;11.636;2023-01-04T04:32:24;7.20;;;5.07;;
21513;SDS011;10918;48.102;11.636;2023-01-04T04:34:49;5.93;;;4.82;;
21513;SDS011;10918;48.102;11.636;2023-01-04T04:37:15;6.22;;;4.88;;
21513;SDS011;10918;48.102;11.636;2023-01-04T04:39:41;5.43;;;4.45;;
21513;SDS011;10918;48.102;11.636;2023-01-04T04:42:08;5.53;;;4.60;;
21513;SDS011;10918;48.102;11.636;2023-01-04T04:44:34;5.30;;;4.47;;
21513;SDS011;10918;48.102;11.636;2023-01-04T04:47:00;5.32;;;4.38;;
21513;SDS011;10918;48.102;11.636;2023-01-04T04:49:26;5.13;;;3.97;;
21513;SDS011;10918;48.102;11.636;2023-01-04T04:51:52;5.43;;;4.13;;
21513;SDS011;10918;48.102;11.636;2023-01-04T04:54:19;5.68;;;4.38;;
21513;SDS011;10918;48.102;11.636;2023-01-04T04:56:45;4.30;;;3.90;;
21513;SDS011;10918;48.102;11.636;2023-01-04T04:59:12;4.90;;;4.20;;
21513;SDS011;10918;48.102;11.636;2023-01-04T05:01:38;5.88;;;4.00;;
21513;SDS011;10918;48.102;11.636;2023-01-04T05:04:04;4.72;;;3.97;;
21513;SDS011;10918;48.102;11.636;2023-01-04T05:06:29;6.47;;;4.30;;
21513;SDS011;10918;48.102;11.636;2023-01-04T05:08:55;4.80;;;3.88;;
21513;SDS011;10918;48.102;11.636;2023-01-04T05:11:21;6.18;;;4.63;;
21513;SDS011;10918;48.102;11.636;2023-01-04T05:14:07;4.40;;;3.97;;
21513;SDS011;10918;48.102;11.636;2023-01-04T05:16:33;4.65;;;3.38;;
21513;SDS011;10918;48.102;11.636;2023-01-04T05:18:59;5.25;;;3.92;;
21513;SDS011;10918;48.102;11.636;2023-01-04T05:21:25;4.72;;;3.42;;
21513;SDS011;10918;48.102;11.636;2023-01-04T05:23:51;3.95;;;2.95;;
21513;SDS011;10918;48.102;11.636;2023-01-04T05:26:17;3.95;;;2.63;;
21513;SDS011;10918;48.102;11.636;2023-01-04T05:28:43;3.15;;;2.85;;
21513;SDS011;10918;48.102;11.636;2023-01-04T05:31:08;3.28;;;2.65;;
21513;SDS011;10918;48.102;11.636;2023-01-04T05:33:35;2.97;;;2.60;;
21513;SDS011;10918;48.102;11.636;2023-01-04T05:36:01;3.35;;;2.63;;
21513;SDS011;10918;48.102;11.636;2023-01-04T05:38:28;3.72;;;2.60;;
21513;SDS011;10918;48.102;11.636;2023-01-04T05:40:54;2.50;;;2.00;;
21513;SDS011;10918;48.102;11.636;2023-01-04T05:43:20;2.53;;;2.13;;
21513;SDS011;10918;48.102;11.636;2023-01-04T05:45:54;2.72;;;2.30;;
21513;SDS011;10918;48.102;11.636;2023-01-04T05:48:21;2.65;;;1.85;;
21513;SDS011;10918;48.102;11.636;2023-01-04T05:50:47;4.35;;;2.38;;
21513;SDS011;10918;48.102;11.636;2023-01-04T05:53:14;3.00;;;2.20;;
21513;SDS011;10918;48.102;11.636;2023-01-04T05:55:41;3.75;;;2.67;;
21513;SDS011;10918;48.102;11.636;2023-01-04T05:58:08;2.97;;;2.40;;
21513;SDS011;10918;48.102;11.636;2023-01-04T06:00:34;2.85;;;2.00;;
21513;SDS011;10918;48.102;11.636;2023-01-04T06:03:00;2.38;;;2.08;;
21513;SDS011;10918;48.102;11.636;2023-01-04T06:05:26;2.20;;;2.00;;
21513;SDS011;10918;48.102;11.636;2023-01-04T06:07:52;2.50;;;2.03;;
21513;SDS011;10918;48.102;11.636;2023-01-04T06:10:18;2.83;;;2.20;;
21513;SDS011;10918;48.102;11.636;2023-01-04T06:12:45;4.65;;;2.08;;
21513;SDS011;10918;48.102;11.636;2023-01-04T06:15:11;2.58;;;1.83;;
21513;SDS011;10918;48.102;11.636;2023-01-04T06:17:37;2.47;;;2.08;;
21513;SDS011;10918;48.102;11.636;2023-01-04T06:20:04;2.25;;;1.98;;
21513;SDS011;10918;48.102;11.636;2023-01-04T06:22:30;2.55;;;2.10;;
21513;SDS011;10918;48.102;11.636;2023-01-04T06:24:57;2.72;;;2.38;;
21513;SDS011;10918;48.102;11.636;2023-01-04T06:27:23;2.63;;;2.03;;
21513;SDS011;10918;48.102;11.636;2023-01-04T06:29:49;3.40;;;2.00;;
21513;SDS011;10918;48.102;11.636;2023-01-04T06:32:15;3.17;;;2.20;;
21513;SDS011;10918;48.102;11.636;2023-01-04T06:34:41;1.80;;;1.63;;
21513;SDS011;10918;48.102;11.636;2023-01-04T06:37:07;2.53;;;2.03;;
21513;SDS011;10918;48.102;11.636;2023-01-04T06:39:34;2.90;;;2.10;;
21513;SDS011;10918;48.102;11.636;2023-01-04T06:42:01;3.17;;;2.40;;
21513;SDS011;10918;48.102;11.636;2023-01-04T06:44:27;3.40;;;2.40;;
21513;SDS011;10918;48.102;11.636;2023-01-04T06:46:53;3.33;;;2.63;;
21513;SDS011;10918;48.102;11.636;2023-01-04T06:49:19;5.72;;;3.00;;
21513;SDS011;10918;48.102;11.636;2023-01-04T06:51:45;2.47;;;2.17;;
21513;SDS011;10918;48.102;11.636;2023-01-04T06:54:11;2.60;;;2.10;;
21513;SDS011;10918;48.102;11.636;2023-01-04T06:56:37;4.32;;;2.42;;
21513;SDS011;10918;48.102;11.636;2023-01-04T06:59:03;3.65;;;2.78;;
21513;SDS011;10918;48.102;11.636;2023-01-04T07:01:29;3.90;;;2.38;;
21513;SDS011;10918;48.102;11.636;2023-01-04T07:03:55;3.50;;;2.55;;
21513;SDS011;10918;48.102;11.636;2023-01-04T07:06:21;2.95;;;2.30;;
21513;SDS011;10918;48.102;11.636;2023-01-04T07:08:47;2.95;;;2.35;;
21513;SDS011;10918;48.102;11.636;2023-01-04T07:11:13;2.65;;;2.08;;
21513;SDS011;10918;48.102;11.636;2023-01-04T07:13:39;2.85;;;2.30;;
21513;SDS011;10918;48.102;11.636;2023-01-04T07:16:05;2.85;;;2.40;;
21513;SDS011;10918;48.102;11.636;2023-01-04T07:18:31;2.92;;;2.47;;
21513;SDS011;10918;48.102;11.636;2023-01-04T07:20:57;3.35;;;2.80;;
21513;SDS011;10918;48.102;11.636;2023-01-04T07:23:23;3.47;;;2.40;;
21513;SDS011;10918;48.102;11.636;2023-01-04T07:25:49;2.88;;;2.40;;
21513;SDS011;10918;48.102;11.636;2023-01-04T07:28:15;2.63;;;2.20;;
21513;SDS011;10918;48.102;11.636;2023-01-04T07:31:04;2.85;;;2.05;;
21513;SDS011;10918;48.102;11.636;2023-01-04T07:33:31;2.70;;;2.40;;
21513;SDS011;10918;48.102;11.636;2023-01-04T07:36:00;2.30;;;2.10;;
21513;SDS011;10918;48.102;11.636;2023-01-04T07:38:27;3.53;;;1.80;;
21513;SDS011;10918;48.102;11.636;2023-01-04T07:40:53;2.35;;;1.98;;
21513;SDS011;10918;48.102;11.636;2023-01-04T07:43:19;1.70;;;1.50;;
21513;SDS011;10918;48.102;11.636;2023-01-04T07:45:45;2.33;;;1.85;;
21513;SDS011;10918;48.102;11.636;2023-01-04T07:48:11;2.63;;;1.30;;
21513;SDS011;10918;48.102;11.636;2023-01-04T07:50:37;2.15;;;1.90;;
21513;SDS011;10918;48.102;11.636;2023-01-04T07:53:03;1.52;;;1.40;;
21513;SDS011;10918;48.102;11.636;2023-01-04T07:55:29;2.58;;;2.00;;
21513;SDS011;10918;48.102;11.636;2023-01-04T07:57:55;1.88;;;1.70;;
21513;SDS011;10918;48.102;11.636;2023-01-04T08:00:21;2.45;;;1.73;;
21513;SDS011;10918;48.102;11.636;2023-01-04T08:02:47;2.10;;;1.88;;
21513;SDS011;10918;48.102;11.636;2023-01-04T08:05:13;2.97;;;1.88;;
21513;SDS011;10918;48.102;11.636;2023-01-04T08:07:39;2.22;;;1.95;;
21513;SDS011;10918;48.102;11.636;2023-01-04T08:10:06;3.05;;;1.90;;
21513;SDS011;10918;48.102;11.636;2023-01-04T08:12:32;2.55;;;1.70;;
21513;SDS011;10918;48.102;11.636;2023-01-04T08:14:58;2.30;;;1.70;;
21513;SDS011;10918;48.102;11.636;2023-01-04T08:17:25;2.17;;;1.65;;
21513;SDS011;10918;48.102;11.636;2023-01-04T08:19:51;2.50;;;2.20;;
21513;SDS011;10918;48.102;11.636;2023-01-04T08:22:17;2.72;;;2.25;;
21513;SDS011;10918;48.102;11.636;2023-01-04T08:24:43;2.15;;;1.90;;
21513;SDS011;10918;48.102;11.636;2023-01-04T08:27:09;2.08;;;1.73;;
21513;SDS011;10918;48.102;11.636;2023-01-04T08:29:35;2.70;;;1.80;;
21513;SDS011;10918;48.102;11.636;2023-01-04T08:32:01;1.75;;;1.60;;
21513;SDS011;10918;48.102;11.636;2023-01-04T08:34:27;1.92;;;1.73;;
21513;SDS011;10918;48.102;11.636;2023-01-04T08:36:54;1.60;;;1.50;;
21513;SDS011;10918;48.102;11.636;2023-01-04T08:39:20;2.05;;;1.73;;
21513;SDS011;10918;48.102;11.636;2023-01-04T08:41:46;1.67;;;1.48;;
21513;SDS011;10918;48.102;11.636;2023-01-04T08:44:15;1.55;;;1.45;;
21513;SDS011;10918;48.102;11.636;2023-01-04T08:46:41;2.28;;;1.42;;
21513;SDS011;10918;48.102;11.636;2023-01-04T08:49:08;1.55;;;1.30;;
21513;SDS011;10918;48.102;11.636;2023-01-04T08:51:34;2.20;;;2.00;;
21513;SDS011;10918;48.102;11.636;2023-01-04T08:54:00;2.55;;;1.70;;
21513;SDS011;10918;48.102;11.636;2023-01-04T08:56:26;1.75;;;1.40;;
21513;SDS011;10918;48.102;11.636;2023-01-04T08:58:52;1.45;;;1.23;;
21513;SDS011;10918;48.102;11.636;2023-01-04T09:01:18;1.65;;;1.55;;
21513;SDS011;10918;48.102;11.636;2023-01-04T09:03:43;1.70;;;1.40;;
21513;SDS011;10918;48.102;11.636;2023-01-04T09:06:11;1.25;;;1.15;;
21513;SDS011;10918;48.102;11.636;2023-01-04T09:08:37;1.83;;;1.55;;
21513;SDS011;10918;48.102;11.636;2023-01-04T09:11:06;1.70;;;1.38;;
21513;SDS011;10918;48.102;11.636;2023-01-04T09:13:33;1.50;;;1.20;;
21513;SDS011;10918;48.102;11.636;2023-01-04T09:16:04;4.28;;;1.80;;
21513;SDS011;10918;48.102;11.636;2023-01-04T09:18:30;2.17;;;1.60;;
21513;SDS011;10918;48.102;11.636;2023-01-04T09:20:57;3.47;;;1.70;;
21513;SDS011;10918;48.102;11.636;2023-01-04T09:23:24;1.83;;;1.50;;
21513;SDS011;10918;48.102;11.636;2023-01-04T09:25:52;1.92;;;1.40;;
21513;SDS011;10918;48.102;11.636;2023-01-04T09:28:18;1.63;;;1.50;;
21513;SDS011;10918;48.102;11.636;2023-01-04T09:30:44;2.72;;;1.90;;
21513;SDS011;10918;48.102;11.636;2023-01-04T09:33:10;2.00;;;1.70;;
21513;SDS011;10918;48.102;11.636;2023-01-04T09:35:36;1.80;;;1.63;;
21513;SDS011;10918;48.102;11.636;2023-01-04T09:38:02;2.15;;;1.42;;
21513;SDS011;10918;48.102;11.636;2023-01-04T09:43:14;1.77;;;1.60;;
21513;SDS011;10918;48.102;11.636;2023-01-04T09:45:42;1.10;;;1.00;;
21513;SDS011;10918;48.102;11.636;2023-01-04T09:48:10;1.48;;;1.00;;
21513;SDS011;10918;48.102;11.636;2023-01-04T09:50:44;0.95;;;0.95;;
21513;SDS011;10918;48.102;11.636;2023-01-04T09:53:23;1.55;;;1.05;;
21513;SDS011;10918;48.102;11.636;2023-01-04T09:55:51;1.25;;;0.90;;
21513;SDS011;10918;48.102;11.636;2023-01-04T09:58:23;1.20;;;1.10;;
21513;SDS011;10918;48.102;11.636;2023-01-04T10:00:54;1.60;;;1.42;;
21513;SDS011;10918;48.102;11.636;2023-01-04T10:03:24;1.40;;;1.10;;
21513;SDS011;10918;48.102;11.636;2023-01-04T10:05:53;2.17;;;1.27;;
21513;SDS011;10918;48.102;11.636;2023-01-04T10:08:19;0.75;;;0.75;;
21513;SDS011;10918;48.102;11.636;2023-01-04T10:13:24;1.10;;;1.00;;
21513;SDS011;10918;48.102;11.636;2023-01-04T10:18:35;0.90;;;0.90;;
21513;SDS011;10918;48.102;11.636;2023-01-04T10:21:05;1.13;;;1.00;;
21513;SDS011;10918;48.102;11.636;2023-01-04T10:26:15;1.17;;;1.02;;
21513;SDS011;10918;48.102;11.636;2023-01-04T10:34:02;1.02;;;0.70;;
21513;SDS011;10918;48.102;11.636;2023-01-04T10:36:30;2.13;;;1.52;;
21513;SDS011;10918;48.102;11.636;2023-01-04T10:41:25;1.00;;;0.90;;
21513;SDS011;10918;48.102;11.636;2023-01-04T10:46:25;13.35;;;8.82;;
21513;SDS011;10918;48.102;11.636;2023-01-04T10:49:01;1.17;;;0.90;;
21513;SDS011;10918;48.102;11.636;2023-01-04T10:51:34;1.13;;;1.02;;
21513;SDS011;10918;48.102;11.636;2023-01-04T10:56:51;1.25;;;0.80;;
21513;SDS011;10918;48.102;11.636;2023-01-04T10:59:22;1.73;;;0.80;;
21513;SDS011;10918;48.102;11.636;2023-01-04T11:01:52;0.90;;;0.80;;
21513;SDS011;10918;48.102;11.636;2023-01-04T11:04:21;0.85;;;0.80;;
21513;SDS011;10918;48.102;11.636;2023-01-04T11:06:51;0.90;;;0.80;;
21513;SDS011;10918;48.102;11.636;2023-01-04T11:09:22;1.52;;;0.90;;
21513;SDS011;10918;48.102;11.636;2023-01-04T11:11:49;0.63;;;0.50;;
21513;SDS011;10918;48.102;11.636;2023-01-04T11:14:16;0.90;;;0.90;;
21513;SDS011;10918;48.102;11.636;2023-01-04T11:16:44;2.90;;;2.03;;
21513;SDS011;10918;48.102;11.636;2023-01-04T11:19:11;0.77;;;0.77;;
21513;SDS011;10918;48.102;11.636;2023-01-04T11:21:42;0.70;;;0.70;;
21513;SDS011;10918;48.102;11.636;2023-01-04T11:24:09;1.60;;;0.63;;
21513;SDS011;10918;48.102;11.636;2023-01-04T11:26:36;2.97;;;2.10;;
21513;SDS011;10918;48.102;11.636;2023-01-04T11:29:05;1.05;;;0.77;;
21513;SDS011;10918;48.102;11.636;2023-01-04T11:31:52;1.17;;;0.90;;
21513;SDS011;10918;48.102;11.636;2023-01-04T11:34:19;1.15;;;0.80;;
21513;SDS011;10918;48.102;11.636;2023-01-04T11:37:08;0.93;;;0.85;;
21513;SDS011;10918;48.102;11.636;2023-01-04T11:39:47;0.95;;;0.80;;
21513;SDS011;10918;48.102;11.636;2023-01-04T11:42:20;1.52;;;0.88;;
21513;SDS011;10918;48.102;11.636;2023-01-04T11:44:58;1.05;;;0.95;;
21513;SDS011;10918;48.102;11.636;2023-01-04T11:47:24;1.10;;;1.00;;
21513;SDS011;10918;48.102;11.636;2023-01-04T11:49:53;1.00;;;0.90;;
21513;SDS011;10918;48.102;11.636;2023-01-04T11:52:30;7.07;;;5.10;;
21513;SDS011;10918;48.102;11.636;2023-01-04T11:55:12;1.85;;;1.25;;
21513;SDS011;10918;48.102;11.636;2023-01-04T11:57:40;2.22;;;1.30;;
21513;SDS011;10918;48.102;11.636;2023-01-04T12:00:07;1.25;;;0.95;;
21513;SDS011;10918;48.102;11.636;2023-01-04T12:02:34;1.10;;;0.88;;
21513;SDS011;10918;48.102;11.636;2023-01-04T12:05:00;1.10;;;0.93;;
21513;SDS011;10918;48.102;11.636;2023-01-04T12:07:30;0.88;;;0.80;;
21513;SDS011;10918;48.102;11.636;2023-01-04T12:09:57;2.85;;;0.90;;
21513;SDS011;10918;48.102;11.636;2023-01-04T12:12:26;1.98;;;0.82;;
21513;SDS011;10918;48.102;11.636;2023-01-04T12:14:53;1.10;;;0.80;;
21513;SDS011;10918;48.102;11.636;2023-01-04T12:17:33;1.10;;;0.68;;
21513;SDS011;10918;48.102;11.636;2023-01-04T12:20:00;2.67;;;1.05;;
21513;SDS011;10918;48.102;11.636;2023-01-04T12:22:32;1.05;;;0.45;;
21513;SDS011;10918;48.102;11.636;2023-01-04T12:25:00;1.88;;;0.75;;
21513;SDS011;10918;48.102;11.636;2023-01-04T12:27:26;2.22;;;0.90;;
21513;SDS011;10918;48.102;11.636;2023-01-04T12:29:56;1.58;;;0.90;;
21513;SDS011;10918;48.102;11.636;2023-01-04T12:34:52;3.15;;;1.63;;
21513;SDS011;10918;48.102;11.636;2023-01-04T12:45:39;0.88;;;0.60;;
21513;SDS011;10918;48.102;11.636;2023-01-04T12:51:16;3.50;;;0.80;;
21513;SDS011;10918;48.102;11.636;2023-01-04T12:56:17;6.53;;;4.30;;
21513;SDS011;10918;48.102;11.636;2023-01-04T13:01:28;0.80;;;0.80;;
21513;SDS011;10918;48.102;11.636;2023-01-04T13:03:58;3.13;;;0.98;;
21513;SDS011;10918;48.102;11.636;2023-01-04T13:06:25;2.17;;;0.90;;
21513;SDS011;10918;48.102;11.636;2023-01-04T13:08:52;1.50;;;0.57;;
21513;SDS011;10918;48.102;11.636;2023-01-04T13:11:33;2.25;;;0.90;;
21513;SDS011;10918;48.102;11.636;2023-01-04T13:14:01;1.05;;;0.82;;
21513;SDS011;10918;48.102;11.636;2023-01-04T13:16:33;1.35;;;0.80;;
21513;SDS011;10918;48.102;11.636;2023-01-04T13:19:01;0.82;;;0.68;;
21513;SDS011;10918;48.102;11.636;2023-01-04T13:24:19;0.95;;;0.88;;
21513;SDS011;10918;48.102;11.636;2023-01-04T13:26:46;0.85;;;0.60;;
21513;SDS011;10918;48.102;11.636;2023-01-04T13:34:21;1.95;;;0.68;;
21513;SDS011;10918;48.102;11.636;2023-01-04T13:39:33;0.68;;;0.50;;
21513;SDS011;10918;48.102;11.636;2023-01-04T13:41:59;3.42;;;2.30;;
21513;SDS011;10918;48.102;11.636;2023-01-04T13:47:10;4.95;;;3.95;;
21513;SDS011;10918;48.102;11.636;2023-01-04T13:49:36;1.20;;;0.60;;
21513;SDS011;10918;48.102;11.636;2023-01-04T13:55:11;1.50;;;0.70;;
21513;SDS011;10918;48.102;11.636;2023-01-04T13:57:54;1.42;;;0.73;;
21513;SDS011;10918;48.102;11.636;2023-01-04T14:00:20;0.98;;;0.47;;
21513;SDS011;10918;48.102;11.636;2023-01-04T14:02:47;0.73;;;0.40;;
21513;SDS011;10918;48.102;11.636;2023-01-04T14:05:24;1.70;;;0.50;;
21513;SDS011;10918;48.102;11.636;2023-01-04T14:07:50;2.20;;;0.77;;
21513;SDS011;10918;48.102;11.636;2023-01-04T14:10:16;1.08;;;0.52;;
21513;SDS011;10918;48.102;11.636;2023-01-04T14:12:44;1.67;;;0.70;;
21513;SDS011;10918;48.102;11.636;2023-01-04T14:15:19;1.13;;;0.40;;
21513;SDS011;10918;48.102;11.636;2023-01-04T14:17:46;0.90;;;0.47;;
21513;SDS011;10918;48.102;11.636;2023-01-04T14:38:42;7.70;;;5.95;;
21513;SDS011;10918;48.102;11.636;2023-01-04T14:43:51;2.28;;;1.00;;
21513;SDS011;10918;48.102;11.636;2023-01-04T14:46:18;2.42;;;1.10;;
21513;SDS011;10918;48.102;11.636;2023-01-04T14:48:44;0.98;;;0.63;;
21513;SDS011;10918;48.102;11.636;2023-01-04T14:51:14;0.60;;;0.50;;
21513;SDS011;10918;48.102;11.636;2023-01-04T14:53:40;2.22;;;1.33;;
21513;SDS011;10918;48.102;11.636;2023-01-04T14:56:08;0.30;;;0.25;;
21513;SDS011;10918;48.102;11.636;2023-01-04T14:58:35;0.30;;;0.30;;
21513;SDS011;10918;48.102;11.636;2023-01-04T15:01:01;0.32;;;0.20;;
21513;SDS011;10918;48.102;11.636;2023-01-04T15:03:27;0.17;;;0.13;;
21513;SDS011;10918;48.102;11.636;2023-01-04T15:05:53;0.20;;;0.20;;
21513;SDS011;10918;48.102;11.636;2023-01-04T15:08:19;0.60;;;0.22;;
21513;SDS011;10918;48.102;11.636;2023-01-04T15:10:45;0.20;;;0.20;;
21513;SDS011;10918;48.102;11.636;2023-01-04T15:13:12;0.10;;;0.10;;
21513;SDS011;10918;48.102;11.636;2023-01-04T15:15:38;0.75;;;0.65;;
21513;SDS011;10918;48.102;11.636;2023-01-04T15:18:04;0.43;;;0.30;;
21513;SDS011;10918;48.102;11.636;2023-01-04T15:20:30;0.22;;;0.22;;
21513;SDS011;10918;48.102;11.636;2023-01-04T15:22:56;0.30;;;0.20;;
21513;SDS011;10918;48.102;11.636;2023-01-04T15:25:22;1.05;;;0.20;;
21513;SDS011;10918;48.102;11.636;2023-01-04T15:27:51;0.30;;;0.30;;
21513;SDS011;10918;48.102;11.636;2023-01-04T15:30:17;0.57;;;0.30;;
21513;SDS011;10918;48.102;11.636;2023-01-04T15:32:42;0.40;;;0.40;;
21513;SDS011;10918;48.102;11.636;2023-01-04T15:35:08;0.30;;;0.25;;
21513;SDS011;10918;48.102;11.636;2023-01-04T15:37:34;0.25;;;0.20;;
21513;SDS011;10918;48.102;11.636;2023-01-04T15:40:01;0.10;;;0.10;;
21513;SDS011;10918;48.102;11.636;2023-01-04T15:42:27;0.45;;;0.20;;
21513;SDS011;10918;48.102;11.636;2023-01-04T15:45:11;0.30;;;0.30;;
21513;SDS011;10918;48.102;11.636;2023-01-04T15:47:37;0.63;;;0.30;;
21513;SDS011;10918;48.102;11.636;2023-01-04T15:50:03;0.20;;;0.20;;
21513;SDS011;10918;48.102;11.636;2023-01-04T15:52:30;0.45;;;0.40;;
21513;SDS011;10918;48.102;11.636;2023-01-04T15:54:55;0.30;;;0.30;;
21513;SDS011;10918;48.102;11.636;2023-01-04T15:57:21;0.32;;;0.28;;
21513;SDS011;10918;48.102;11.636;2023-01-04T15:59:47;0.30;;;0.30;;
21513;SDS011;10918;48.102;11.636;2023-01-04T16:02:13;1.17;;;0.38;;
21513;SDS011;10918;48.102;11.636;2023-01-04T16:04:39;0.57;;;0.30;;
21513;SDS011;10918;48.102;11.636;2023-01-04T16:07:05;1.65;;;0.30;;
21513;SDS011;10918;48.102;11.636;2023-01-04T16:09:31;0.47;;;0.47;;
21513;SDS011;10918;48.102;11.636;2023-01-04T16:11:57;0.40;;;0.30;;
21513;SDS011;10918;48.102;11.636;2023-01-04T16:14:42;0.30;;;0.30;;
21513;SDS011;10918;48.102;11.636;2023-01-04T16:17:08;0.65;;;0.50;;
21513;SDS011;10918;48.102;11.636;2023-01-04T16:19:34;0.98;;;0.40;;
21513;SDS011;10918;48.102;11.636;2023-01-04T16:22:00;0.30;;;0.30;;
21513;SDS011;10918;48.102;11.636;2023-01-04T16:24:26;0.45;;;0.20;;
21513;SDS011;10918;48.102;11.636;2023-01-04T16:26:52;0.22;;;0.22;;
21513;SDS011;10918;48.102;11.636;2023-01-04T16:29:17;0.30;;;0.30;;
21513;SDS011;10918;48.102;11.636;2023-01-04T16:31:44;0.40;;;0.40;;
21513;SDS011;10918;48.102;11.636;2023-01-04T16:34:11;0.43;;;0.30;;
21513;SDS011;10918;48.102;11.636;2023-01-04T16:36:37;0.40;;;0.40;;